Time;durP1;ratioP1;P1;durP2;ratioP2;P2;SDS_P1;SDS_P2;PMS_P1;PMS_P2;Temp;Humidity;BMP_temperature;BMP_pressure;BME280_temperature;BME280_humidity;BME280_pressure;Samples;Min_cycle;Max_cycle;Signal;HPM_P1;HPM_P2
2022/11/18 00:00:53;;;;;;;2.13;0.68;;;;;;;;;;5050914;28;20048;-43
2022/11/18 00:03:19;;;;;;;1.60;0.50;;;;;;;;;;5051671;28;20029;-42
2022/11/18 00:05:55;;;;;;;5.80;0.70;;;;;;;;;;5049681;28;20025;-43
2022/11/18 00:08:21;;;;;;;0.80;0.68;;;;;;;;;;5051855;28;20070;-43
2022/11/18 00:10:47;;;;;;;2.63;0.63;;;;;;;;;;5050627;28;20028;-45
2022/11/18 00:16:05;;;;;;;1.40;0.70;;;;;;;;;;5050046;28;20102;-45
2022/11/18 00:18:32;;;;;;;1.65;0.47;;;;;;;;;;5033123;28;20040;-46
2022/11/18 00:21:01;;;;;;;1.35;0.70;;;;;;;;;;5049624;28;20055;-46
2022/11/18 00:23:28;;;;;;;1.40;0.77;;;;;;;;;;5050919;28;20056;-45
2022/11/18 00:25:53;;;;;;;1.65;0.50;;;;;;;;;;5048493;28;20037;-45
2022/11/18 00:28:19;;;;;;;2.15;0.55;;;;;;;;;;5050592;28;20032;-45
2022/11/18 00:30:45;;;;;;;0.88;0.50;;;;;;;;;;5048784;28;20112;-46
2022/11/18 00:33:11;;;;;;;1.63;0.57;;;;;;;;;;5050687;28;20039;-45
2022/11/18 00:35:37;;;;;;;1.35;0.98;;;;;;;;;;5046251;28;20025;-49
2022/11/18 00:38:03;;;;;;;1.55;0.95;;;;;;;;;;5049900;28;20027;-45
2022/11/18 00:40:29;;;;;;;0.60;0.40;;;;;;;;;;5050078;28;20036;-46
2022/11/18 00:42:55;;;;;;;2.97;0.50;;;;;;;;;;5049900;28;20071;-45
2022/11/18 00:45:21;;;;;;;0.82;0.52;;;;;;;;;;5049100;28;20090;-46
2022/11/18 00:47:47;;;;;;;1.33;0.52;;;;;;;;;;5049410;28;20351;-45
2022/11/18 00:50:14;;;;;;;0.50;0.40;;;;;;;;;;5049782;28;20078;-45
2022/11/18 00:52:39;;;;;;;0.68;0.47;;;;;;;;;;5049322;28;20047;-49
2022/11/18 00:55:07;;;;;;;1.13;0.60;;;;;;;;;;5048542;28;20029;-46
2022/11/18 00:57:33;;;;;;;0.77;0.40;;;;;;;;;;5050218;28;20037;-45
2022/11/18 00:59:59;;;;;;;1.55;0.55;;;;;;;;;;5048754;28;20086;-45
2022/11/18 01:02:25;;;;;;;1.23;0.50;;;;;;;;;;5050246;28;20029;-45
2022/11/18 01:04:51;;;;;;;0.73;0.40;;;;;;;;;;5048883;28;20033;-46
2022/11/18 01:07:17;;;;;;;1.08;0.43;;;;;;;;;;5049388;28;20159;-45
2022/11/18 01:09:42;;;;;;;1.10;0.60;;;;;;;;;;5048943;28;20479;-49
2022/11/18 01:15:02;;;;;;;0.40;0.40;;;;;;;;;;5015019;28;20033;-47
2022/11/18 01:17:31;;;;;;;0.77;0.45;;;;;;;;;;5050299;28;20032;-45
2022/11/18 01:19:58;;;;;;;2.05;1.15;;;;;;;;;;5011287;28;1057798;-45
2022/11/18 01:22:24;;;;;;;0.90;0.40;;;;;;;;;;5050716;28;20422;-45
2022/11/18 01:24:50;;;;;;;2.35;1.05;;;;;;;;;;5049658;28;20028;-45
2022/11/18 01:27:16;;;;;;;1.58;0.47;;;;;;;;;;5050277;28;20049;-46
2022/11/18 01:29:42;;;;;;;1.38;0.70;;;;;;;;;;5050499;28;20563;-49
2022/11/18 01:32:08;;;;;;;0.90;0.30;;;;;;;;;;5051088;28;20021;-45
2022/11/18 01:34:34;;;;;;;1.10;0.77;;;;;;;;;;5032373;28;20486;-45
2022/11/18 01:36:59;;;;;;;0.60;0.40;;;;;;;;;;5048001;28;20123;-45
2022/11/18 01:39:26;;;;;;;0.57;0.30;;;;;;;;;;5050898;28;20029;-45
2022/11/18 01:41:52;;;;;;;1.60;0.70;;;;;;;;;;5049484;28;20056;-47
2022/11/18 01:44:36;;;;;;;1.85;0.50;;;;;;;;;;5050643;28;20471;-45
2022/11/18 01:47:02;;;;;;;0.70;0.40;;;;;;;;;;5048622;28;20119;-46
2022/11/18 01:49:28;;;;;;;0.40;0.30;;;;;;;;;;5050896;28;20105;-45
2022/11/18 01:51:56;;;;;;;0.82;0.40;;;;;;;;;;5050014;28;20079;-45
2022/11/18 01:54:27;;;;;;;2.78;0.60;;;;;;;;;;5050616;28;20025;-48
2022/11/18 01:56:55;;;;;;;0.52;0.30;;;;;;;;;;5048910;28;20429;-46
2022/11/18 01:59:24;;;;;;;1.30;0.32;;;;;;;;;;5050478;28;20091;-45
2022/11/18 02:01:50;;;;;;;0.70;0.40;;;;;;;;;;5049665;28;20120;-45
2022/11/18 02:04:16;;;;;;;0.90;0.50;;;;;;;;;;5053703;28;20111;-46
2022/11/18 02:06:44;;;;;;;2.00;0.60;;;;;;;;;;5052174;28;20409;-49
2022/11/18 02:09:10;;;;;;;0.60;0.47;;;;;;;;;;5054508;28;20032;-45
2022/11/18 02:11:53;;;;;;;0.60;0.40;;;;;;;;;;5053666;28;20033;-46
2022/11/18 02:14:31;;;;;;;1.27;0.52;;;;;;;;;;5054208;28;20048;-45
2022/11/18 02:17:08;;;;;;;0.40;0.30;;;;;;;;;;5033280;28;20037;-45
2022/11/18 02:19:46;;;;;;;0.52;0.30;;;;;;;;;;5053406;28;20025;-46
2022/11/18 02:22:21;;;;;;;0.52;0.52;;;;;;;;;;5053906;28;20072;-46
2022/11/18 02:24:47;;;;;;;0.28;0.28;;;;;;;;;;5052922;28;20036;-45
2022/11/18 02:27:13;;;;;;;1.08;0.90;;;;;;;;;;5052884;28;20029;-46
2022/11/18 02:29:39;;;;;;;0.68;0.40;;;;;;;;;;5053393;28;20107;-49
2022/11/18 02:32:22;;;;;;;0.30;0.30;;;;;;;;;;5053078;28;20036;-45
2022/11/18 02:34:50;;;;;;;1.08;0.43;;;;;;;;;;5052177;28;20432;-46
2022/11/18 02:37:24;;;;;;;0.32;0.30;;;;;;;;;;5049865;28;20406;-46
2022/11/18 02:39:57;;;;;;;0.30;0.28;;;;;;;;;;5052027;28;20485;-46
2022/11/18 02:42:24;;;;;;;0.60;0.30;;;;;;;;;;5053262;28;20091;-45
2022/11/18 02:44:52;;;;;;;1.27;0.35;;;;;;;;;;5052155;28;20033;-45
2022/11/18 02:47:20;;;;;;;0.30;0.20;;;;;;;;;;5052250;28;20033;-46
2022/11/18 02:49:47;;;;;;;0.30;0.30;;;;;;;;;;5051926;28;20082;-46
2022/11/18 02:52:15;;;;;;;0.80;0.20;;;;;;;;;;5050830;28;20033;-46
2022/11/18 02:54:42;;;;;;;0.40;0.28;;;;;;;;;;5051933;28;20372;-50
2022/11/18 02:57:08;;;;;;;0.35;0.30;;;;;;;;;;5053215;28;20025;-45
2022/11/18 02:59:34;;;;;;;0.40;0.20;;;;;;;;;;5053119;28;20024;-45
2022/11/18 03:02:00;;;;;;;0.85;0.30;;;;;;;;;;5051371;28;20363;-46
2022/11/18 03:04:26;;;;;;;0.90;0.28;;;;;;;;;;5052762;28;20424;-45
2022/11/18 03:07:02;;;;;;;0.82;0.30;;;;;;;;;;5051605;28;20079;-46
2022/11/18 03:09:30;;;;;;;0.30;0.30;;;;;;;;;;5053025;28;20021;-45
2022/11/18 03:12:10;;;;;;;0.32;0.30;;;;;;;;;;5051417;28;20059;-45
2022/11/18 03:14:55;;;;;;;0.50;0.20;;;;;;;;;;5050466;28;20024;-45
2022/11/18 03:17:24;;;;;;;1.75;0.28;;;;;;;;;;5052874;28;20056;-45
2022/11/18 03:20:02;;;;;;;0.50;0.45;;;;;;;;;;5051922;28;20051;-45
2022/11/18 03:22:39;;;;;;;0.30;0.30;;;;;;;;;;5055967;28;20493;-45
2022/11/18 03:25:08;;;;;;;0.52;0.30;;;;;;;;;;5059564;28;20024;-46
2022/11/18 03:27:36;;;;;;;0.45;0.30;;;;;;;;;;5054619;28;20013;-46
2022/11/18 03:30:05;;;;;;;0.30;0.30;;;;;;;;;;5055874;28;20032;-45
2022/11/18 03:32:35;;;;;;;0.63;0.30;;;;;;;;;;5053236;28;20033;-45
2022/11/18 03:35:12;;;;;;;0.38;0.28;;;;;;;;;;5059654;28;20541;-46
2022/11/18 03:37:40;;;;;;;0.68;0.30;;;;;;;;;;5055661;28;20017;-50
2022/11/18 03:40:12;;;;;;;0.63;0.30;;;;;;;;;;5061328;28;20020;-46
2022/11/18 03:42:41;;;;;;;0.77;0.40;;;;;;;;;;5061275;28;20103;-49
2022/11/18 03:45:28;;;;;;;1.45;0.30;;;;;;;;;;5056569;28;20494;-45
2022/11/18 03:48:08;;;;;;;0.25;0.20;;;;;;;;;;5051698;28;20045;-47
2022/11/18 03:50:37;;;;;;;0.98;0.38;;;;;;;;;;5057556;28;20505;-45
2022/11/18 03:53:05;;;;;;;0.52;0.30;;;;;;;;;;5051113;28;20039;-46
2022/11/18 03:55:34;;;;;;;0.88;0.38;;;;;;;;;;5051749;28;20025;-45
2022/11/18 03:58:16;;;;;;;0.85;0.40;;;;;;;;;;5051262;28;20957;-45
2022/11/18 04:00:44;;;;;;;0.50;0.40;;;;;;;;;;5047371;28;20036;-49
2022/11/18 04:03:11;;;;;;;0.80;0.30;;;;;;;;;;5044291;28;20021;-45
2022/11/18 04:05:41;;;;;;;0.35;0.20;;;;;;;;;;5051254;28;20025;-45
2022/11/18 04:08:15;;;;;;;0.65;0.20;;;;;;;;;;5052686;28;20031;-45
2022/11/18 04:10:49;;;;;;;0.55;0.40;;;;;;;;;;5049334;28;20079;-49
2022/11/18 04:13:21;;;;;;;0.20;0.20;;;;;;;;;;5051817;28;20025;-45
2022/11/18 04:15:47;;;;;;;0.40;0.30;;;;;;;;;;5050236;28;20021;-45
2022/11/18 04:18:13;;;;;;;1.10;0.30;;;;;;;;;;5051776;28;20099;-45
2022/11/18 04:20:39;;;;;;;0.20;0.20;;;;;;;;;;5049675;28;20055;-49
2022/11/18 04:23:06;;;;;;;0.77;0.20;;;;;;;;;;5051125;28;20110;-45
2022/11/18 04:25:32;;;;;;;0.40;0.28;;;;;;;;;;5050865;28;20040;-45
2022/11/18 04:27:58;;;;;;;0.57;0.20;;;;;;;;;;5050920;28;20018;-45
2022/11/18 04:30:24;;;;;;;0.57;0.20;;;;;;;;;;5049912;28;20139;-45
2022/11/18 04:32:50;;;;;;;0.20;0.20;;;;;;;;;;5051137;28;20112;-45
2022/11/18 04:35:16;;;;;;;0.35;0.30;;;;;;;;;;5051382;28;20025;-46
2022/11/18 04:37:42;;;;;;;0.98;0.35;;;;;;;;;;5048587;28;20033;-49
2022/11/18 04:40:08;;;;;;;0.75;0.52;;;;;;;;;;5050120;28;20028;-46
2022/11/18 04:42:34;;;;;;;0.60;0.30;;;;;;;;;;5051164;28;20110;-45
2022/11/18 04:45:00;;;;;;;0.30;0.30;;;;;;;;;;5049873;28;20959;-45
2022/11/18 04:47:26;;;;;;;1.98;0.50;;;;;;;;;;5051281;28;20053;-45
2022/11/18 04:49:52;;;;;;;1.33;0.60;;;;;;;;;;5049715;28;20035;-46
2022/11/18 04:52:18;;;;;;;2.38;0.45;;;;;;;;;;5050725;28;20032;-45
2022/11/18 04:54:45;;;;;;;1.98;0.65;;;;;;;;;;5049933;28;20109;-47
2022/11/18 04:57:11;;;;;;;2.45;0.40;;;;;;;;;;5050961;28;20037;-44
2022/11/18 04:59:37;;;;;;;0.50;0.30;;;;;;;;;;5050954;28;20075;-46
2022/11/18 05:02:03;;;;;;;0.77;0.60;;;;;;;;;;5048496;28;20052;-46
2022/11/18 05:04:31;;;;;;;1.23;0.50;;;;;;;;;;5051207;28;20028;-45
2022/11/18 05:06:57;;;;;;;2.28;0.40;;;;;;;;;;5049610;28;20029;-44
2022/11/18 05:09:23;;;;;;;0.65;0.30;;;;;;;;;;5050806;28;20033;-46
2022/11/18 05:14:34;;;;;;;2.78;0.45;;;;;;;;;;5050623;28;20083;-45
2022/11/18 05:17:01;;;;;;;2.10;0.40;;;;;;;;;;5050090;28;20021;-44
2022/11/18 05:19:27;;;;;;;0.57;0.30;;;;;;;;;;5032953;28;20091;-45
2022/11/18 05:21:53;;;;;;;2.70;0.60;;;;;;;;;;5048636;28;20033;-44
2022/11/18 05:24:19;;;;;;;1.00;0.25;;;;;;;;;;5050391;28;20029;-45
2022/11/18 05:26:46;;;;;;;1.80;0.93;;;;;;;;;;5049840;28;20029;-45
2022/11/18 05:29:12;;;;;;;1.17;0.30;;;;;;;;;;5050755;28;20386;-44
2022/11/18 05:31:38;;;;;;;1.10;0.40;;;;;;;;;;5049478;28;20044;-49
2022/11/18 05:34:04;;;;;;;2.05;0.40;;;;;;;;;;5050182;28;20136;-45
2022/11/18 05:36:30;;;;;;;1.38;0.40;;;;;;;;;;5050113;28;20021;-44
2022/11/18 05:38:59;;;;;;;1.05;0.55;;;;;;;;;;5052796;28;20024;-44
2022/11/18 05:44:10;;;;;;;3.60;0.80;;;;;;;;;;5054480;28;20540;-44
2022/11/18 05:46:36;;;;;;;2.35;0.45;;;;;;;;;;5053973;28;20033;-44
2022/11/18 05:49:02;;;;;;;2.05;0.43;;;;;;;;;;5053850;28;20054;-44
2022/11/18 05:51:28;;;;;;;2.13;0.70;;;;;;;;;;5053431;28;20051;-44
2022/11/18 05:53:54;;;;;;;1.67;0.73;;;;;;;;;;5053190;28;20036;-44
2022/11/18 05:56:26;;;;;;;3.05;0.47;;;;;;;;;;5053654;28;20041;-44
2022/11/18 05:58:52;;;;;;;4.43;0.70;;;;;;;;;;5053236;28;20029;-44
2022/11/18 06:01:30;;;;;;;2.65;0.57;;;;;;;;;;5046645;28;20032;-44
2022/11/18 06:03:56;;;;;;;2.35;0.60;;;;;;;;;;5053527;28;20148;-44
2022/11/18 06:06:23;;;;;;;2.42;0.50;;;;;;;;;;5053423;28;20052;-44
2022/11/18 06:09:02;;;;;;;2.70;0.95;;;;;;;;;;5052955;28;20029;-45
2022/11/18 06:11:28;;;;;;;3.45;1.38;;;;;;;;;;5054790;28;20021;-45
2022/11/18 06:14:00;;;;;;;2.42;0.60;;;;;;;;;;5053406;28;20036;-46
2022/11/18 06:16:28;;;;;;;1.52;0.60;;;;;;;;;;5041609;28;20052;-45
2022/11/18 06:18:54;;;;;;;2.05;0.80;;;;;;;;;;5053167;28;20027;-44
2022/11/18 06:21:20;;;;;;;2.33;0.55;;;;;;;;;;5054991;28;20041;-44
2022/11/18 06:23:46;;;;;;;1.65;0.73;;;;;;;;;;5062920;28;20450;-44
2022/11/18 06:26:13;;;;;;;1.20;0.50;;;;;;;;;;5057203;28;20432;-44
2022/11/18 06:28:40;;;;;;;1.20;0.90;;;;;;;;;;5053256;28;20033;-48
2022/11/18 06:31:06;;;;;;;1.17;0.68;;;;;;;;;;5052601;28;20028;-44
2022/11/18 06:33:32;;;;;;;1.48;0.60;;;;;;;;;;5056491;28;20196;-44
2022/11/18 06:35:58;;;;;;;2.03;0.77;;;;;;;;;;5054343;28;20777;-44
2022/11/18 06:38:24;;;;;;;2.65;0.95;;;;;;;;;;5047219;28;20025;-45
2022/11/18 06:40:50;;;;;;;2.92;1.23;;;;;;;;;;5052057;28;20363;-44
2022/11/18 06:48:47;;;;;;;3.05;0.93;;;;;;;;;;5052746;28;20036;-45
2022/11/18 06:51:13;;;;;;;4.55;0.80;;;;;;;;;;5052903;28;20024;-44
2022/11/18 06:53:39;;;;;;;12.77;1.95;;;;;;;;;;5052991;28;20037;-48
2022/11/18 06:56:06;;;;;;;5.10;1.60;;;;;;;;;;5051417;28;20031;-44
2022/11/18 06:58:32;;;;;;;3.92;1.00;;;;;;;;;;5054490;28;20025;-44
2022/11/18 07:00:58;;;;;;;2.67;1.17;;;;;;;;;;5058371;28;20132;-44
2022/11/18 07:03:24;;;;;;;12.60;1.27;;;;;;;;;;5053059;28;20390;-45
2022/11/18 07:05:50;;;;;;;3.80;0.80;;;;;;;;;;5049156;28;20024;-46
2022/11/18 07:08:16;;;;;;;4.47;1.10;;;;;;;;;;5051950;28;20017;-44
2022/11/18 07:10:42;;;;;;;4.22;0.98;;;;;;;;;;5051592;28;20118;-48
2022/11/18 07:13:08;;;;;;;4.45;1.23;;;;;;;;;;5052869;28;20466;-45
2022/11/18 07:15:34;;;;;;;6.60;1.20;;;;;;;;;;5051458;28;20101;-45
2022/11/18 07:18:00;;;;;;;6.00;1.95;;;;;;;;;;5050999;28;20092;-45
2022/11/18 07:20:26;;;;;;;4.90;1.50;;;;;;;;;;5047820;28;20167;-46
2022/11/18 07:22:52;;;;;;;1.88;0.88;;;;;;;;;;5051510;28;20033;-44
2022/11/18 07:25:19;;;;;;;5.10;1.63;;;;;;;;;;5051097;28;20051;-44
2022/11/18 07:27:46;;;;;;;6.90;1.70;;;;;;;;;;5045137;28;20383;-46
2022/11/18 07:30:12;;;;;;;4.03;1.05;;;;;;;;;;5050762;28;20029;-46
2022/11/18 07:32:38;;;;;;;2.90;0.90;;;;;;;;;;5052624;28;20035;-49
2022/11/18 07:35:04;;;;;;;9.15;1.30;;;;;;;;;;5045989;28;20391;-46
2022/11/18 07:37:30;;;;;;;9.27;1.38;;;;;;;;;;5041202;28;20071;-43
2022/11/18 07:39:58;;;;;;;3.50;0.80;;;;;;;;;;5049630;28;20622;-43
2022/11/18 07:42:24;;;;;;;3.35;0.95;;;;;;;;;;5050500;28;20112;-43
2022/11/18 07:44:50;;;;;;;3.47;0.98;;;;;;;;;;5048578;28;20037;-43
2022/11/18 07:47:16;;;;;;;2.95;1.02;;;;;;;;;;5049805;28;20080;-43
2022/11/18 07:49:42;;;;;;;8.48;0.88;;;;;;;;;;5054649;28;20033;-47
2022/11/18 07:52:08;;;;;;;5.75;1.05;;;;;;;;;;5050801;28;20025;-43
2022/11/18 07:54:34;;;;;;;1.70;0.85;;;;;;;;;;5051550;28;20455;-43
2022/11/18 07:57:00;;;;;;;3.22;1.17;;;;;;;;;;5049917;28;20153;-44
2022/11/18 07:59:26;;;;;;;8.05;0.80;;;;;;;;;;5051729;28;20048;-43
2022/11/18 08:01:52;;;;;;;1.65;0.55;;;;;;;;;;5049029;28;20107;-44
2022/11/18 08:04:18;;;;;;;3.22;0.82;;;;;;;;;;5044465;28;20025;-43
2022/11/18 08:06:44;;;;;;;2.35;0.90;;;;;;;;;;5050397;28;20070;-43
2022/11/18 08:09:10;;;;;;;1.85;0.70;;;;;;;;;;5045059;28;20025;-43
2022/11/18 08:11:36;;;;;;;2.80;0.77;;;;;;;;;;5044184;28;20068;-43
2022/11/18 08:14:02;;;;;;;2.70;0.93;;;;;;;;;;5049348;28;20048;-43
2022/11/18 08:16:28;;;;;;;2.80;0.82;;;;;;;;;;5046605;28;20028;-44
2022/11/18 08:18:54;;;;;;;2.30;0.93;;;;;;;;;;5049526;28;20378;-43
2022/11/18 08:21:21;;;;;;;2.10;0.60;;;;;;;;;;5049823;28;20049;-42
2022/11/18 08:23:51;;;;;;;1.92;0.85;;;;;;;;;;5046437;28;20033;-43
2022/11/18 08:26:17;;;;;;;5.10;0.85;;;;;;;;;;5050324;28;20061;-43
2022/11/18 08:28:44;;;;;;;2.30;0.90;;;;;;;;;;5047414;28;20028;-43
2022/11/18 08:31:11;;;;;;;1.27;0.95;;;;;;;;;;5049289;28;20035;-43
2022/11/18 08:33:37;;;;;;;2.05;0.60;;;;;;;;;;5051040;28;20033;-43
2022/11/18 08:36:08;;;;;;;2.53;0.70;;;;;;;;;;5047847;28;20029;-43
2022/11/18 08:38:34;;;;;;;1.55;1.02;;;;;;;;;;5048435;28;20040;-43
2022/11/18 08:41:00;;;;;;;1.42;1.05;;;;;;;;;;5048914;28;20020;-43
2022/11/18 08:43:26;;;;;;;1.63;0.65;;;;;;;;;;5050003;28;20547;-44
2022/11/18 08:45:52;;;;;;;3.40;0.90;;;;;;;;;;5054600;28;20041;-44
2022/11/18 08:48:18;;;;;;;2.53;0.80;;;;;;;;;;5048981;28;20033;-45
2022/11/18 08:50:44;;;;;;;1.83;0.80;;;;;;;;;;5043444;28;20394;-44
2022/11/18 08:53:09;;;;;;;1.20;0.50;;;;;;;;;;5045902;28;20040;-44
2022/11/18 08:55:35;;;;;;;2.15;0.88;;;;;;;;;;5049760;28;20040;-43
2022/11/18 08:58:01;;;;;;;2.22;0.63;;;;;;;;;;5050139;28;20021;-43
2022/11/18 09:00:27;;;;;;;0.95;0.40;;;;;;;;;;5049247;28;20033;-43
2022/11/18 09:02:53;;;;;;;2.05;0.50;;;;;;;;;;5050077;28;20028;-43
2022/11/18 09:05:19;;;;;;;1.02;0.60;;;;;;;;;;5050586;28;20025;-43
2022/11/18 09:07:45;;;;;;;0.85;0.50;;;;;;;;;;5048533;28;20029;-43
2022/11/18 09:10:11;;;;;;;2.25;0.60;;;;;;;;;;5048807;28;20029;-44
2022/11/18 09:12:37;;;;;;;1.20;0.65;;;;;;;;;;5050798;28;20028;-43
2022/11/18 09:15:04;;;;;;;0.65;0.50;;;;;;;;;;5053080;28;20025;-43
2022/11/18 09:17:30;;;;;;;0.85;0.63;;;;;;;;;;5051455;28;20017;-43
2022/11/18 09:19:56;;;;;;;1.02;0.60;;;;;;;;;;5042382;28;20038;-44
2022/11/18 09:22:22;;;;;;;1.85;0.68;;;;;;;;;;5047161;28;20120;-43
2022/11/18 09:24:48;;;;;;;0.73;0.50;;;;;;;;;;5049330;28;20038;-45
2022/11/18 09:27:14;;;;;;;1.83;0.57;;;;;;;;;;5055459;28;20031;-44
2022/11/18 09:29:40;;;;;;;1.63;0.60;;;;;;;;;;5057457;28;20021;-47
2022/11/18 09:32:05;;;;;;;1.00;0.60;;;;;;;;;;5053386;28;20146;-43
2022/11/18 09:34:33;;;;;;;3.10;0.75;;;;;;;;;;5054166;28;20067;-43
2022/11/18 09:36:59;;;;;;;1.13;0.80;;;;;;;;;;5051775;28;20025;-44
2022/11/18 09:39:25;;;;;;;2.47;0.40;;;;;;;;;;5053383;28;20032;-43
2022/11/18 09:42:00;;;;;;;1.15;0.50;;;;;;;;;;5053127;28;20079;-43
2022/11/18 09:44:32;;;;;;;1.33;0.57;;;;;;;;;;5053951;28;20112;-44
2022/11/18 09:46:58;;;;;;;;;;;;;;;;;;5053566;28;20025;-43
2022/11/18 09:49:29;;;;;;;1.60;0.73;;;;;;;;;;5054380;28;19909;-45
2022/11/18 09:51:55;;;;;;;1.25;0.38;;;;;;;;;;5050417;28;20076;-43
2022/11/18 09:54:23;;;;;;;2.00;0.55;;;;;;;;;;5055216;28;20052;-44
2022/11/18 09:56:51;;;;;;;0.77;0.55;;;;;;;;;;5052620;28;20374;-44
2022/11/18 09:59:22;;;;;;;2.22;0.57;;;;;;;;;;5059980;28;20033;-43
2022/11/18 10:01:52;;;;;;;1.30;0.85;;;;;;;;;;5047745;28;20025;-44
2022/11/18 10:04:20;;;;;;;1.60;0.70;;;;;;;;;;5051685;28;20043;-43
2022/11/18 10:06:47;;;;;;;1.75;0.60;;;;;;;;;;5051040;28;20029;-44
2022/11/18 10:09:24;;;;;;;0.70;0.50;;;;;;;;;;5051522;28;20532;-45
2022/11/18 10:11:50;;;;;;;1.38;0.40;;;;;;;;;;5051680;28;20033;-44
2022/11/18 10:14:29;;;;;;;1.00;0.40;;;;;;;;;;5052954;28;20036;-37
2022/11/18 10:16:59;;;;;;;2.72;0.63;;;;;;;;;;5052240;28;20120;-39
2022/11/18 10:19:34;;;;;;;1.35;0.40;;;;;;;;;;5053487;28;20100;-39
2022/11/18 10:22:18;;;;;;;1.13;0.50;;;;;;;;;;5052476;28;20633;-39
2022/11/18 10:24:48;;;;;;;2.92;0.52;;;;;;;;;;5049457;28;20159;-42
2022/11/18 10:27:15;;;;;;;0.80;0.60;;;;;;;;;;5052792;28;20075;-39
2022/11/18 10:29:42;;;;;;;0.80;0.50;;;;;;;;;;5052927;28;20100;-42
2022/11/18 10:32:11;;;;;;;1.33;0.57;;;;;;;;;;5052833;28;20024;-39
2022/11/18 10:34:46;;;;;;;0.95;0.38;;;;;;;;;;5053155;28;20079;-41
2022/11/18 10:37:26;;;;;;;1.17;0.50;;;;;;;;;;5053463;28;20390;-37
2022/11/18 10:39:54;;;;;;;1.70;0.80;;;;;;;;;;5044115;28;20040;-39
2022/11/18 10:42:39;;;;;;;2.78;1.02;;;;;;;;;;5050846;28;20041;-39
2022/11/18 10:45:28;;;;;;;2.67;0.60;;;;;;;;;;5051839;28;20068;-40
2022/11/18 10:48:09;;;;;;;2.63;1.55;;;;;;;;;;5035278;28;20049;-39
2022/11/18 10:50:53;;;;;;;5.85;0.70;;;;;;;;;;5051530;28;20100;-39
2022/11/18 10:53:30;;;;;;;2.60;0.60;;;;;;;;;;5045635;28;20020;-39
2022/11/18 10:55:58;;;;;;;4.35;0.50;;;;;;;;;;5051586;28;20028;-39
2022/11/18 10:58:24;;;;;;;1.65;0.60;;;;;;;;;;5052759;28;20384;-38
2022/11/18 11:00:50;;;;;;;2.88;0.90;;;;;;;;;;5051655;28;20032;-37
2022/11/18 11:03:25;;;;;;;4.97;0.70;;;;;;;;;;5051032;28;20029;-37
2022/11/18 11:06:10;;;;;;;4.10;0.75;;;;;;;;;;5051429;28;20108;-39
2022/11/18 11:08:46;;;;;;;3.67;0.73;;;;;;;;;;5052272;28;20127;-39
2022/11/18 11:11:18;;;;;;;3.40;1.27;;;;;;;;;;5052448;28;20104;-39
2022/11/18 11:13:44;;;;;;;3.45;0.80;;;;;;;;;;5051249;28;20051;-39
2022/11/18 11:16:13;;;;;;;3.20;0.75;;;;;;;;;;5050628;28;20052;-39
2022/11/18 11:18:42;;;;;;;2.08;0.60;;;;;;;;;;5052059;28;20033;-42
2022/11/18 11:21:18;;;;;;;1.83;0.60;;;;;;;;;;5051528;28;20079;-39
2022/11/18 11:23:45;;;;;;;3.45;0.88;;;;;;;;;;5051275;28;20040;-39
2022/11/18 11:26:16;;;;;;;12.73;2.60;;;;;;;;;;5051734;28;20489;-39
2022/11/18 11:28:50;;;;;;;18.77;4.18;;;;;;;;;;5050431;28;20041;-41
2022/11/18 11:31:25;;;;;;;20.83;5.97;;;;;;;;;;5051572;28;20040;-39
2022/11/18 11:34:06;;;;;;;24.23;5.75;;;;;;;;;;5047869;28;20124;-39
2022/11/18 11:36:50;;;;;;;16.48;4.88;;;;;;;;;;5044238;28;20674;-39
2022/11/18 11:39:35;;;;;;;17.08;3.90;;;;;;;;;;5041802;28;20036;-39
2022/11/18 11:42:24;;;;;;;21.98;5.63;;;;;;;;;;5031286;28;20028;-39
2022/11/18 11:44:59;;;;;;;13.98;4.65;;;;;;;;;;5014854;28;20047;-39
2022/11/18 11:47:46;;;;;;;13.93;4.15;;;;;;;;;;5042192;28;20537;-39
2022/11/18 11:50:12;;;;;;;12.10;3.80;;;;;;;;;;5039319;28;20047;-39
2022/11/18 11:52:37;;;;;;;19.95;4.68;;;;;;;;;;5050594;28;20029;-39
2022/11/18 11:55:26;;;;;;;18.45;3.97;;;;;;;;;;5050193;28;20076;-39
2022/11/18 11:58:11;;;;;;;11.68;3.58;;;;;;;;;;5051036;28;20028;-39
2022/11/18 12:00:41;;;;;;;23.55;5.20;;;;;;;;;;5047925;28;20025;-39
2022/11/18 12:03:25;;;;;;;12.07;4.03;;;;;;;;;;5050919;28;20100;-39
2022/11/18 12:05:51;;;;;;;11.07;3.38;;;;;;;;;;5045020;28;20087;-40
2022/11/18 12:08:23;;;;;;;8.80;2.83;;;;;;;;;;5051350;28;20095;-39
2022/11/18 12:10:51;;;;;;;8.13;2.40;;;;;;;;;;5042582;28;20021;-39
2022/11/18 12:13:25;;;;;;;7.03;2.88;;;;;;;;;;5050629;28;20028;-39
2022/11/18 12:15:57;;;;;;;10.63;2.88;;;;;;;;;;5039822;28;20040;-40
2022/11/18 12:18:26;;;;;;;10.05;2.75;;;;;;;;;;5050452;28;20029;-39
2022/11/18 12:20:52;;;;;;;9.80;2.55;;;;;;;;;;5048779;28;20414;-39
2022/11/18 12:23:21;;;;;;;8.18;3.10;;;;;;;;;;5047137;28;20027;-40
2022/11/18 12:25:47;;;;;;;11.98;2.42;;;;;;;;;;5043314;28;20037;-39
2022/11/18 12:28:25;;;;;;;7.78;2.85;;;;;;;;;;5047487;28;20032;-39
2022/11/18 12:31:11;;;;;;;9.25;3.25;;;;;;;;;;5046111;28;20616;-39
2022/11/18 12:33:45;;;;;;;10.57;2.40;;;;;;;;;;5050311;28;20095;-39
2022/11/18 12:36:24;;;;;;;6.68;2.80;;;;;;;;;;5050004;28;20374;-39
2022/11/18 12:38:51;;;;;;;11.93;2.40;;;;;;;;;;5045237;28;20458;-39
2022/11/18 12:43:45;;;;;;;9.75;1.90;;;;;;;;;;5039823;28;20028;-39
2022/11/18 12:44:23;;;;;;;5.90;1.92;;;;;;;;;;5047945;28;20052;-39
2022/11/18 12:46:49;;;;;;;2.45;0.93;;;;;;;;;;5045049;28;20033;-39
2022/11/18 12:49:21;;;;;;;2.72;0.60;;;;;;;;;;5042191;28;20127;-39
2022/11/18 12:51:47;;;;;;;;;;;;;;;;;;5041523;28;20040;-39
2022/11/18 12:54:36;;;;;;;1.60;0.70;;;;;;;;;;5046577;28;19909;-39
2022/11/18 12:57:23;;;;;;;1.35;0.80;;;;;;;;;;5035347;28;20060;-39
2022/11/18 12:59:49;;;;;;;2.10;0.93;;;;;;;;;;5044595;28;20028;-39
2022/11/18 13:02:20;;;;;;;4.20;0.77;;;;;;;;;;5040891;28;20029;-39
2022/11/18 13:05:01;;;;;;;2.05;0.95;;;;;;;;;;5038510;28;20037;-39
2022/11/18 13:10:21;;;;;;;1.85;1.00;;;;;;;;;;5050992;28;20032;-39
2022/11/18 13:12:48;;;;;;;3.60;0.82;;;;;;;;;;5045085;28;20025;-39
2022/11/18 13:18:19;;;;;;;3.03;0.63;;;;;;;;;;5047839;28;20609;-39
2022/11/18 13:20:55;;;;;;;4.20;1.20;;;;;;;;;;5052877;28;20497;-39
2022/11/18 13:26:19;;;;;;;1.73;0.60;;;;;;;;;;5041301;28;20041;-39
2022/11/18 13:28:45;;;;;;;5.97;0.80;;;;;;;;;;5042728;28;20078;-39
2022/11/18 13:31:11;;;;;;;1.75;0.60;;;;;;;;;;5050117;28;20453;-39
2022/11/18 13:33:38;;;;;;;1.13;0.75;;;;;;;;;;5041026;28;20029;-39
2022/11/18 13:36:16;;;;;;;1.88;0.70;;;;;;;;;;5046636;28;20029;-39
2022/11/18 13:38:53;;;;;;;1.92;0.60;;;;;;;;;;5044426;28;20036;-42
2022/11/18 13:41:23;;;;;;;2.08;0.80;;;;;;;;;;5047906;28;20511;-39
2022/11/18 13:43:49;;;;;;;2.97;1.05;;;;;;;;;;5046106;28;20033;-39
2022/11/18 13:46:18;;;;;;;7.25;0.70;;;;;;;;;;5040462;28;20600;-40
2022/11/18 13:48:52;;;;;;;3.70;0.82;;;;;;;;;;5053664;28;20057;-39
2022/11/18 13:51:18;;;;;;;3.42;0.70;;;;;;;;;;5045702;28;20063;-39
2022/11/18 13:53:44;;;;;;;4.57;1.10;;;;;;;;;;5049783;28;20021;-39
2022/11/18 13:56:19;;;;;;;5.70;1.00;;;;;;;;;;5049721;28;20454;-39
2022/11/18 13:58:55;;;;;;;4.00;1.15;;;;;;;;;;5039424;28;20112;-40
2022/11/18 14:01:26;;;;;;;4.13;1.30;;;;;;;;;;5045960;28;20021;-39
2022/11/18 14:03:53;;;;;;;5.55;1.27;;;;;;;;;;5051784;28;20375;-39
2022/11/18 14:06:29;;;;;;;8.07;1.50;;;;;;;;;;5052765;28;20163;-38
2022/11/18 14:09:16;;;;;;;6.78;1.70;;;;;;;;;;5050320;28;20044;-39
2022/11/18 14:11:44;;;;;;;7.40;2.10;;;;;;;;;;5050590;28;20087;-41
2022/11/18 14:14:12;;;;;;;6.85;1.95;;;;;;;;;;5052826;28;20029;-38
2022/11/18 14:16:39;;;;;;;8.27;1.77;;;;;;;;;;5053375;28;20025;-38
2022/11/18 14:19:05;;;;;;;7.32;1.50;;;;;;;;;;5053023;28;20021;-38
2022/11/18 14:21:33;;;;;;;3.55;1.23;;;;;;;;;;5052621;28;20790;-38
2022/11/18 14:23:59;;;;;;;7.43;2.33;;;;;;;;;;5052275;28;20414;-38
2022/11/18 14:26:30;;;;;;;6.68;1.40;;;;;;;;;;5043903;28;20025;-38
2022/11/18 14:28:57;;;;;;;4.95;1.30;;;;;;;;;;5049870;28;20100;-38
2022/11/18 14:31:23;;;;;;;2.75;1.40;;;;;;;;;;5052982;28;20025;-38
2022/11/18 14:34:07;;;;;;;7.78;1.45;;;;;;;;;;5052640;28;20036;-38
2022/11/18 14:36:33;;;;;;;3.97;1.42;;;;;;;;;;5052678;28;20053;-39
2022/11/18 14:38:59;;;;;;;4.18;1.80;;;;;;;;;;5051525;28;20113;-38
2022/11/18 14:44:12;;;;;;;6.55;1.38;;;;;;;;;;5050591;28;20078;-38
2022/11/18 14:46:38;;;;;;;5.32;1.85;;;;;;;;;;5052722;28;20040;-38
2022/11/18 14:49:05;;;;;;;4.78;1.52;;;;;;;;;;5047863;28;20028;-38
2022/11/18 14:51:31;;;;;;;5.05;1.58;;;;;;;;;;5051175;28;20033;-39
2022/11/18 14:53:57;;;;;;;7.40;1.48;;;;;;;;;;5051873;28;20104;-40
2022/11/18 14:56:30;;;;;;;3.35;0.98;;;;;;;;;;5049220;28;20018;-38
2022/11/18 14:58:56;;;;;;;6.70;1.27;;;;;;;;;;5040880;28;20053;-38
2022/11/18 15:01:23;;;;;;;6.70;1.02;;;;;;;;;;5059620;28;20405;-38
2022/11/18 15:03:50;;;;;;;3.20;0.95;;;;;;;;;;5046949;28;20104;-38
2022/11/18 15:06:17;;;;;;;4.78;1.42;;;;;;;;;;5049085;28;20029;-39
2022/11/18 15:08:44;;;;;;;5.38;1.38;;;;;;;;;;5051356;28;20425;-41
2022/11/18 15:11:10;;;;;;;3.95;1.02;;;;;;;;;;5048899;28;20036;-39
2022/11/18 15:13:36;;;;;;;7.13;1.52;;;;;;;;;;5053916;28;20037;-38
2022/11/18 15:16:11;;;;;;;3.38;1.00;;;;;;;;;;5056176;28;20073;-38
2022/11/18 15:18:37;;;;;;;8.38;1.35;;;;;;;;;;5058126;28;20020;-38
2022/11/18 15:21:03;;;;;;;6.35;1.40;;;;;;;;;;5051127;28;20183;-38
2022/11/18 15:23:29;;;;;;;3.72;1.13;;;;;;;;;;5053762;28;20033;-38